createdAt,value
2018-12-31T14:04:07.343Z,1027.92
2018-12-31T14:05:07.241Z,1027.92
2018-12-31T14:06:07.215Z,1027.85
2018-12-31T14:07:07.178Z,1027.87
2018-12-31T14:08:07.143Z,1027.92
2018-12-31T14:09:07.111Z,1027.92
2018-12-31T14:10:07.064Z,1027.90
2018-12-31T14:11:07.021Z,1027.92
2018-12-31T14:12:06.981Z,1027.95
2018-12-31T14:13:06.940Z,1027.94
2018-12-31T14:14:06.908Z,1027.92
2018-12-31T14:15:06.858Z,1027.94
2018-12-31T14:16:06.815Z,1027.94
2018-12-31T14:17:06.773Z,1027.95
2018-12-31T14:18:06.730Z,1027.86
2018-12-31T14:19:06.701Z,1027.85
2018-12-31T14:20:06.648Z,1027.96
2018-12-31T14:21:06.605Z,1027.87
2018-12-31T14:22:06.560Z,1027.92
2018-12-31T14:23:06.508Z,1027.92
2018-12-31T14:24:06.471Z,1027.94
2018-12-31T14:25:06.406Z,1027.90
2018-12-31T14:26:06.354Z,1027.92
2018-12-31T14:27:06.302Z,1027.95
2018-12-31T14:28:06.251Z,1027.92
2018-12-31T14:29:06.198Z,1027.98
2018-12-31T14:30:06.151Z,1027.95
2018-12-31T14:31:06.087Z,1027.93
2018-12-31T14:32:06.034Z,1027.97
2018-12-31T14:33:05.976Z,1028.04
2018-12-31T14:34:05.919Z,1028.00
2018-12-31T14:35:05.879Z,1027.99
2018-12-31T14:36:05.812Z,1028.01
2018-12-31T14:37:05.756Z,1028.02
2018-12-31T14:38:05.704Z,1028.00
2018-12-31T14:39:05.646Z,1028.09
2018-12-31T14:40:05.604Z,1028.04
2018-12-31T14:41:05.538Z,1028.07
2018-12-31T14:42:05.480Z,1028.13
2018-12-31T14:43:05.421Z,1028.15
2018-12-31T14:44:05.364Z,1028.09
2018-12-31T14:45:05.325Z,1028.10
2018-12-31T14:46:05.250Z,1028.09
2018-12-31T14:47:05.192Z,1028.09
2018-12-31T14:48:05.132Z,1028.12
2018-12-31T14:49:05.077Z,1028.07
2018-12-31T14:50:05.027Z,1028.11
2018-12-31T14:51:04.978Z,1028.16
2018-12-31T14:52:04.913Z,1028.13
2018-12-31T14:53:04.858Z,1028.16
2018-12-31T14:54:04.806Z,1028.22
2018-12-31T14:55:04.753Z,1028.20
2018-12-31T14:56:04.702Z,1028.19
2018-12-31T14:57:04.632Z,1028.19
2018-12-31T14:58:04.576Z,1028.20
2018-12-31T14:59:04.531Z,1028.18
2018-12-31T15:00:04.543Z,1028.21
